createdAt,value
2022-12-28T00:01:14.552Z,3.53
2022-12-28T00:03:41.677Z,3.17
2022-12-28T00:06:08.373Z,3.13
2022-12-28T00:08:35.081Z,2.90
2022-12-28T00:11:06.779Z,2.87
2022-12-28T00:13:36.106Z,3.47
2022-12-28T00:16:10.113Z,3.03
2022-12-28T00:18:37.452Z,3.73
2022-12-28T00:21:05.215Z,3.77
2022-12-28T00:23:32.423Z,3.20
2022-12-28T00:26:14.015Z,2.63
2022-12-28T00:28:41.159Z,3.43
2022-12-28T00:31:07.925Z,2.97
2022-12-28T00:33:34.400Z,2.77
2022-12-28T00:36:02.005Z,2.30
2022-12-28T00:38:31.738Z,3.00
2022-12-28T00:40:59.086Z,2.87
2022-12-28T00:43:26.252Z,3.43
2022-12-28T00:45:52.827Z,3.27
2022-12-28T00:48:19.806Z,3.17
2022-12-28T00:50:46.443Z,3.50
2022-12-28T00:53:13.365Z,3.60
2022-12-28T00:55:40.377Z,3.70
2022-12-28T00:58:07.937Z,3.20
2022-12-28T01:00:35.540Z,3.37
2022-12-28T01:03:02.620Z,2.20
2022-12-28T01:05:29.317Z,4.20
2022-12-28T01:07:55.717Z,3.47
2022-12-28T01:10:22.226Z,4.37
2022-12-28T01:12:48.629Z,3.77
2022-12-28T01:15:15.140Z,3.20
2022-12-28T01:17:41.585Z,3.17
2022-12-28T01:20:09.694Z,2.73
2022-12-28T01:22:36.162Z,4.63
2022-12-28T01:25:02.648Z,3.57
2022-12-28T01:27:29.049Z,4.00
2022-12-28T01:29:55.485Z,3.13
2022-12-28T01:32:21.891Z,2.87
2022-12-28T01:34:48.327Z,3.43
2022-12-28T01:37:14.722Z,3.70
2022-12-28T01:39:41.203Z,3.20
2022-12-28T01:42:16.136Z,4.40
2022-12-28T01:44:47.750Z,3.63
2022-12-28T01:47:28.539Z,3.43
2022-12-28T01:50:12.849Z,3.03
2022-12-28T01:52:44.895Z,3.50
2022-12-28T01:55:33.897Z,3.70
2022-12-28T01:58:05.579Z,3.23
2022-12-28T02:00:32.349Z,3.83
2022-12-28T02:03:10.403Z,4.10
2022-12-28T02:05:39.961Z,4.20
2022-12-28T02:08:13.278Z,4.50
2022-12-28T02:10:45.842Z,3.90
2022-12-28T02:13:17.124Z,4.60
2022-12-28T02:15:45.110Z,4.20
2022-12-28T02:18:13.017Z,3.77
2022-12-28T02:21:08.039Z,2.80
2022-12-28T02:23:44.327Z,3.80
2022-12-28T02:26:31.893Z,3.90
2022-12-28T02:29:10.285Z,2.47
2022-12-28T02:32:02.690Z,3.10
2022-12-28T02:34:40.734Z,3.57
2022-12-28T02:37:16.162Z,2.97
2022-12-28T02:39:56.871Z,3.67
2022-12-28T02:42:25.371Z,3.53
2022-12-28T02:45:10.590Z,4.03
2022-12-28T02:47:59.456Z,3.10
2022-12-28T02:50:35.470Z,4.70
2022-12-28T02:53:49.295Z,4.43
2022-12-28T02:56:42.655Z,4.60
2022-12-28T02:59:09.038Z,2.97
2022-12-28T03:01:50.068Z,4.50
2022-12-28T03:04:50.468Z,4.27
2022-12-28T03:07:47.802Z,3.83
2022-12-28T03:10:23.700Z,2.27
2022-12-28T03:13:27.382Z,4.80
2022-12-28T03:15:57.674Z,4.20
2022-12-28T03:18:45.400Z,4.10
2022-12-28T03:21:30.662Z,4.70
2022-12-28T03:24:16.163Z,3.77
2022-12-28T03:27:07.676Z,4.27
2022-12-28T03:30:02.126Z,4.03
2022-12-28T03:32:30.351Z,3.50
2022-12-28T03:34:57.040Z,3.53
2022-12-28T03:37:50.045Z,4.50
2022-12-28T03:40:31.233Z,4.07
2022-12-28T03:43:21.711Z,3.90
2022-12-28T03:45:57.551Z,3.17
2022-12-28T03:48:25.171Z,3.77
2022-12-28T03:50:53.739Z,3.73
2022-12-28T03:53:26.823Z,3.43
2022-12-28T03:55:53.399Z,4.27
2022-12-28T03:58:21.258Z,4.33
2022-12-28T04:00:48.743Z,3.37
2022-12-28T04:03:15.279Z,3.37
2022-12-28T04:05:41.801Z,3.57
2022-12-28T04:08:08.164Z,3.00
2022-12-28T04:10:34.683Z,3.47
2022-12-28T04:13:01.066Z,3.30
2022-12-28T04:15:27.507Z,2.97
2022-12-28T04:17:53.894Z,2.83
2022-12-28T04:20:20.342Z,2.70
2022-12-28T04:22:46.744Z,2.33
2022-12-28T04:25:14.198Z,2.77
2022-12-28T04:27:40.595Z,1.83
2022-12-28T04:30:07.628Z,2.60
2022-12-28T04:32:34.144Z,2.00
2022-12-28T04:35:00.669Z,2.13
2022-12-28T04:37:27.102Z,2.40
2022-12-28T04:39:56.927Z,2.40
2022-12-28T04:42:26.638Z,2.43
2022-12-28T04:44:53.157Z,2.70
2022-12-28T04:47:19.635Z,2.07
2022-12-28T04:49:46.275Z,2.30
2022-12-28T04:52:13.092Z,2.23
2022-12-28T04:54:39.610Z,2.50
2022-12-28T04:57:06.816Z,2.33
2022-12-28T04:59:33.413Z,1.53
2022-12-28T05:01:59.989Z,1.83
2022-12-28T05:04:26.639Z,2.10
2022-12-28T05:06:53.039Z,1.60
2022-12-28T05:09:19.593Z,2.27
2022-12-28T05:11:46.170Z,2.10
2022-12-28T05:14:12.593Z,1.47
2022-12-28T05:16:39.252Z,1.63
2022-12-28T05:19:05.722Z,1.47
2022-12-28T05:21:32.249Z,1.27
2022-12-28T05:23:58.902Z,1.77
2022-12-28T05:26:27.814Z,1.80
2022-12-28T05:28:55.735Z,1.60
2022-12-28T05:31:23.168Z,1.70
2022-12-28T05:33:50.180Z,1.93
2022-12-28T05:36:18.905Z,1.03
2022-12-28T05:38:45.751Z,1.97
2022-12-28T05:41:13.558Z,1.10
2022-12-28T05:43:40.452Z,1.87
2022-12-28T05:46:14.074Z,1.67
2022-12-28T05:48:41.680Z,1.90
2022-12-28T05:51:10.608Z,1.50
2022-12-28T05:53:38.399Z,2.20
2022-12-28T05:56:12.167Z,1.30
2022-12-28T05:58:41.417Z,2.07
2022-12-28T06:01:17.235Z,1.87
2022-12-28T06:03:45.014Z,2.20
2022-12-28T06:06:14.168Z,2.27
2022-12-28T06:08:43.192Z,1.67
2022-12-28T06:11:13.062Z,2.00
2022-12-28T06:13:39.810Z,1.40
2022-12-28T06:16:12.603Z,2.50
2022-12-28T06:18:39.171Z,2.27
2022-12-28T06:21:07.268Z,2.63
2022-12-28T06:23:34.273Z,2.53
2022-12-28T06:26:02.689Z,1.93
2022-12-28T06:28:29.451Z,2.17
2022-12-28T06:31:04.114Z,2.20
2022-12-28T06:33:30.702Z,2.47
2022-12-28T06:35:57.227Z,3.37
2022-12-28T06:38:24.058Z,2.43
2022-12-28T06:43:40.790Z,2.40
2022-12-28T06:46:07.638Z,2.43
2022-12-28T06:48:34.952Z,2.03
2022-12-28T06:51:04.396Z,2.00
2022-12-28T06:53:33.497Z,1.90
2022-12-28T06:56:02.556Z,2.07
2022-12-28T06:58:30.205Z,2.17
2022-12-28T07:00:58.067Z,1.93
2022-12-28T07:03:25.003Z,2.67
2022-12-28T07:05:51.443Z,2.00
2022-12-28T07:08:18.556Z,2.63
2022-12-28T07:10:44.970Z,2.07
2022-12-28T07:13:11.417Z,2.80
2022-12-28T07:15:37.895Z,2.20
2022-12-28T07:18:04.553Z,2.10
2022-12-28T07:20:34.186Z,2.63
2022-12-28T07:23:03.481Z,2.47
2022-12-28T07:25:29.924Z,2.87
2022-12-28T07:27:56.433Z,1.93
2022-12-28T07:30:22.854Z,2.37
2022-12-28T07:32:49.321Z,1.53
2022-12-28T07:35:15.860Z,2.10
2022-12-28T07:37:42.300Z,2.80
2022-12-28T07:40:09.501Z,2.77
2022-12-28T07:42:35.882Z,2.90
2022-12-28T07:45:02.403Z,2.57
2022-12-28T07:47:28.841Z,3.03
2022-12-28T07:49:55.280Z,3.30
2022-12-28T07:52:21.704Z,2.67
2022-12-28T07:54:48.102Z,2.83
2022-12-28T07:57:14.582Z,2.77
2022-12-28T07:59:41.009Z,3.47
2022-12-28T08:02:09.255Z,3.00
2022-12-28T08:04:36.024Z,3.07
2022-12-28T08:07:02.458Z,3.10
2022-12-28T08:09:28.936Z,2.73
2022-12-28T08:11:55.375Z,3.40
2022-12-28T08:14:21.904Z,2.90
2022-12-28T08:16:48.651Z,2.53
2022-12-28T08:19:15.136Z,3.67
2022-12-28T08:21:44.886Z,2.90
2022-12-28T08:24:18.209Z,3.17
2022-12-28T08:26:46.160Z,2.60
2022-12-28T08:29:19.334Z,2.93
2022-12-28T08:31:46.562Z,2.70
2022-12-28T08:34:19.479Z,3.00
2022-12-28T08:36:46.074Z,3.27
2022-12-28T08:39:12.483Z,2.57
2022-12-28T08:41:38.966Z,3.97
2022-12-28T08:44:05.885Z,3.43
2022-12-28T08:46:34.616Z,2.90
2022-12-28T08:49:01.833Z,3.30
2022-12-28T08:51:36.982Z,3.13
2022-12-28T08:54:04.091Z,3.33
2022-12-28T08:56:33.760Z,3.73
2022-12-28T08:59:00.834Z,3.47
2022-12-28T09:01:29.945Z,2.27
2022-12-28T09:03:58.802Z,2.30
2022-12-28T09:06:29.767Z,3.73
2022-12-28T09:09:05.399Z,4.77
2022-12-28T09:11:34.788Z,3.73
2022-12-28T09:14:02.521Z,4.37
2022-12-28T09:16:29.243Z,4.40
2022-12-28T09:18:58.700Z,3.97
2022-12-28T09:21:27.831Z,2.87
2022-12-28T09:23:54.673Z,3.60
2022-12-28T09:26:26.940Z,3.70
2022-12-28T09:28:56.032Z,3.90
2022-12-28T09:31:24.934Z,3.70
2022-12-28T09:36:47.269Z,2.83
2022-12-28T09:39:17.516Z,3.83
2022-12-28T09:42:05.135Z,3.10
2022-12-28T09:45:11.421Z,3.50
2022-12-28T09:47:47.344Z,3.07
2022-12-28T09:50:29.804Z,2.43
2022-12-28T09:53:24.229Z,3.00
2022-12-28T09:56:00.001Z,2.80
2022-12-28T09:58:28.958Z,2.37
2022-12-28T10:00:58.118Z,2.97
2022-12-28T10:03:37.756Z,3.13
2022-12-28T10:06:11.706Z,2.73
2022-12-28T10:08:44.526Z,2.70
2022-12-28T10:11:16.343Z,2.80
2022-12-28T10:13:54.674Z,2.80
2022-12-28T10:16:23.540Z,3.20
2022-12-28T10:18:50.665Z,2.63
2022-12-28T10:21:30.165Z,2.77
2022-12-28T10:26:47.453Z,1.80
2022-12-28T10:29:19.895Z,2.80
2022-12-28T10:31:56.459Z,2.60
2022-12-28T10:34:22.920Z,2.63
2022-12-28T10:36:50.799Z,2.47
2022-12-28T10:39:24.665Z,2.80
2022-12-28T10:41:52.226Z,2.90
2022-12-28T10:44:40.637Z,2.60
2022-12-28T10:47:24.581Z,2.57
2022-12-28T10:52:39.633Z,1.97
2022-12-28T10:55:27.941Z,2.30
2022-12-28T11:00:41.003Z,2.77
2022-12-28T11:03:18.816Z,2.50
2022-12-28T11:05:45.582Z,2.03
2022-12-28T11:08:14.592Z,2.37
2022-12-28T11:10:41.191Z,2.23
2022-12-28T11:13:21.991Z,2.73
2022-12-28T11:15:48.872Z,2.37
2022-12-28T11:18:17.708Z,2.10
2022-12-28T11:20:50.808Z,1.57
2022-12-28T11:23:20.323Z,2.07
2022-12-28T11:25:47.092Z,2.03
2022-12-28T11:28:17.349Z,2.00
2022-12-28T11:30:45.202Z,2.00
2022-12-28T11:33:42.075Z,1.67
2022-12-28T11:36:17.240Z,2.40
2022-12-28T11:38:46.116Z,2.10
2022-12-28T11:41:46.977Z,2.20
2022-12-28T11:44:43.931Z,1.77
2022-12-28T11:47:16.105Z,1.97
2022-12-28T11:49:44.741Z,2.17
2022-12-28T11:52:17.337Z,2.23
2022-12-28T11:54:55.616Z,2.27
2022-12-28T11:57:43.094Z,2.27
2022-12-28T12:00:23.949Z,1.87
2022-12-28T12:03:02.798Z,1.90
2022-12-28T12:05:38.490Z,2.13
2022-12-28T12:08:16.914Z,1.90
2022-12-28T12:10:45.089Z,1.40
2022-12-28T12:13:23.718Z,1.83
2022-12-28T12:15:56.672Z,1.90
2022-12-28T12:18:25.643Z,1.63
2022-12-28T12:21:15.628Z,1.73
2022-12-28T12:23:51.317Z,2.10
2022-12-28T12:26:31.101Z,2.33
2022-12-28T12:29:07.128Z,2.27
2022-12-28T12:31:45.311Z,2.80
2022-12-28T12:34:31.984Z,2.63
2022-12-28T12:37:38.746Z,2.57
2022-12-28T12:40:17.266Z,2.53
2022-12-28T12:43:15.114Z,3.07
2022-12-28T12:46:00.410Z,3.20
2022-12-28T12:48:42.857Z,1.97
2022-12-28T12:51:21.241Z,2.90
2022-12-28T12:54:12.574Z,2.50
2022-12-28T12:57:15.618Z,2.03
2022-12-28T13:00:09.977Z,2.90
2022-12-28T13:03:01.431Z,2.23
2022-12-28T13:05:30.009Z,2.37
2022-12-28T13:07:58.505Z,2.57
2022-12-28T13:10:35.001Z,2.60
2022-12-28T13:13:03.391Z,2.20
2022-12-28T13:15:30.668Z,1.77
2022-12-28T13:21:12.330Z,2.43
2022-12-28T13:23:45.226Z,1.80
2022-12-28T13:26:14.482Z,2.50
2022-12-28T13:29:01.830Z,2.13
2022-12-28T13:31:37.747Z,2.70
2022-12-28T13:34:19.521Z,2.80
2022-12-28T13:36:59.417Z,2.60
2022-12-28T13:39:31.121Z,2.10
2022-12-28T13:42:04.992Z,2.37
2022-12-28T13:44:58.378Z,2.53
2022-12-28T13:47:38.108Z,2.00
2022-12-28T13:50:09.587Z,2.57
2022-12-28T13:52:44.081Z,2.37
2022-12-28T13:55:22.049Z,1.80
2022-12-28T13:57:57.531Z,2.03
2022-12-28T14:00:27.217Z,2.07
2022-12-28T14:02:56.881Z,2.20
2022-12-28T14:05:28.762Z,1.83
2022-12-28T14:07:58.590Z,1.50
2022-12-28T14:10:26.132Z,2.00
2022-12-28T14:12:53.168Z,2.03
2022-12-28T14:15:20.105Z,1.83
2022-12-28T14:17:50.769Z,1.87
2022-12-28T14:20:17.777Z,2.07
2022-12-28T14:22:45.077Z,2.10
2022-12-28T14:25:17.242Z,2.00
2022-12-28T14:27:57.636Z,2.10
2022-12-28T14:30:52.408Z,2.10
2022-12-28T14:33:24.943Z,2.10
2022-12-28T14:36:05.083Z,1.43
2022-12-28T14:38:40.974Z,1.73
2022-12-28T14:41:07.569Z,2.33
2022-12-28T14:43:36.136Z,2.47
2022-12-28T14:46:33.575Z,2.03
2022-12-28T14:49:20.884Z,2.20
2022-12-28T14:51:47.484Z,2.43
2022-12-28T14:54:21.741Z,2.87
2022-12-28T14:56:59.009Z,2.27
2022-12-28T14:59:39.515Z,2.30
2022-12-28T15:02:06.556Z,2.10
2022-12-28T15:04:42.754Z,2.70
2022-12-28T15:07:11.822Z,1.80
2022-12-28T15:09:38.391Z,2.50
2022-12-28T15:12:12.868Z,2.67
2022-12-28T15:14:39.294Z,2.40
2022-12-28T15:17:06.984Z,1.83
2022-12-28T15:19:33.642Z,2.30
2022-12-28T15:22:00.118Z,2.40
2022-12-28T15:24:33.474Z,2.30
2022-12-28T15:27:00.938Z,2.00
2022-12-28T15:29:47.857Z,2.43
2022-12-28T15:32:13.910Z,2.47
2022-12-28T15:34:41.558Z,2.40
2022-12-28T15:37:08.002Z,1.73
2022-12-28T15:39:34.538Z,2.10
2022-12-28T15:42:00.953Z,1.97
2022-12-28T15:44:27.467Z,2.20
2022-12-28T15:46:54.125Z,1.90
2022-12-28T15:49:20.676Z,2.37
2022-12-28T15:51:48.372Z,2.37
2022-12-28T15:54:15.145Z,1.77
2022-12-28T15:56:42.477Z,2.03
2022-12-28T15:59:14.054Z,1.23
2022-12-28T16:01:43.401Z,1.50
2022-12-28T16:04:11.007Z,2.47
2022-12-28T16:06:43.866Z,2.00
2022-12-28T16:09:12.438Z,1.90
2022-12-28T16:11:39.105Z,2.30
2022-12-28T16:14:07.570Z,1.97
2022-12-28T16:16:37.342Z,2.03
2022-12-28T16:19:04.500Z,1.70
2022-12-28T16:21:31.236Z,1.47
2022-12-28T16:23:59.775Z,1.80
2022-12-28T16:26:26.522Z,2.43
2022-12-28T16:28:53.015Z,2.43
2022-12-28T16:31:27.228Z,1.83
2022-12-28T16:34:01.914Z,1.50
2022-12-28T16:36:28.805Z,2.00
2022-12-28T16:38:55.826Z,1.73
2022-12-28T16:41:23.190Z,1.57
2022-12-28T16:43:50.313Z,1.73
2022-12-28T16:46:18.763Z,1.30
2022-12-28T16:48:45.345Z,1.70
2022-12-28T16:51:12.384Z,1.70
2022-12-28T16:53:39.193Z,1.73
2022-12-28T16:56:06.987Z,1.80
2022-12-28T16:58:33.573Z,1.80
2022-12-28T17:01:07.480Z,1.83
2022-12-28T17:03:34.818Z,2.00
2022-12-28T17:06:01.721Z,1.80
2022-12-28T17:08:28.767Z,2.40
2022-12-28T17:10:55.407Z,2.03
2022-12-28T17:13:21.920Z,2.30
2022-12-28T17:15:48.769Z,1.40
2022-12-28T17:18:15.252Z,2.33
2022-12-28T17:20:41.863Z,2.50
2022-12-28T17:23:08.671Z,2.10
2022-12-28T17:25:36.410Z,2.00
2022-12-28T17:28:03.954Z,1.73
2022-12-28T17:30:30.986Z,1.73
2022-12-28T17:32:57.498Z,2.10
2022-12-28T17:35:24.185Z,2.60
2022-12-28T17:37:50.915Z,3.47
2022-12-28T17:40:17.806Z,2.73
2022-12-28T17:42:44.408Z,2.97
2022-12-28T17:45:12.122Z,2.50
2022-12-28T17:47:39.075Z,2.67
2022-12-28T17:50:06.426Z,1.90
2022-12-28T17:52:32.984Z,1.93
2022-12-28T17:54:59.392Z,2.33
2022-12-28T17:57:25.839Z,2.67
2022-12-28T17:59:52.254Z,1.73
2022-12-28T18:02:18.752Z,2.80
2022-12-28T18:04:45.436Z,2.50
2022-12-28T18:07:11.906Z,2.63
2022-12-28T18:09:38.368Z,2.43
2022-12-28T18:12:04.999Z,2.30
2022-12-28T18:14:31.466Z,2.83
2022-12-28T18:16:58.098Z,3.20
2022-12-28T18:19:24.671Z,3.17
2022-12-28T18:21:51.321Z,2.63
2022-12-28T18:24:20.870Z,3.10
2022-12-28T18:26:47.603Z,2.90
2022-12-28T18:29:14.072Z,3.63
2022-12-28T18:31:40.662Z,3.53
2022-12-28T18:34:07.500Z,3.27
2022-12-28T18:36:34.203Z,3.00
2022-12-28T18:39:02.129Z,3.33
2022-12-28T18:41:33.717Z,4.07
2022-12-28T18:44:02.935Z,3.73
2022-12-28T18:46:29.739Z,3.73
2022-12-28T18:48:56.714Z,2.60
2022-12-28T18:51:23.491Z,4.33
2022-12-28T18:53:50.975Z,3.90
2022-12-28T18:56:21.839Z,4.60
2022-12-28T18:58:53.156Z,3.87
2022-12-28T19:02:04.701Z,4.30
2022-12-28T19:04:10.247Z,3.50
2022-12-28T19:06:37.891Z,4.53
2022-12-28T19:09:06.057Z,2.97
2022-12-28T19:11:32.640Z,3.60
2022-12-28T19:13:59.081Z,3.73
2022-12-28T19:16:31.010Z,4.00
2022-12-28T19:18:58.340Z,3.23
2022-12-28T19:21:38.859Z,3.63
2022-12-28T19:24:25.708Z,3.37
2022-12-28T19:26:53.745Z,3.63
2022-12-28T19:29:20.337Z,2.60
2022-12-28T19:31:46.887Z,3.80
2022-12-28T19:34:13.441Z,3.07
2022-12-28T19:36:41.950Z,2.93
2022-12-28T19:39:08.401Z,4.20
2022-12-28T19:41:35.679Z,3.87
2022-12-28T19:44:02.214Z,4.27
2022-12-28T19:46:32.316Z,3.60
2022-12-28T19:49:01.093Z,4.47
2022-12-28T19:51:31.058Z,3.90
2022-12-28T19:53:59.273Z,4.13
2022-12-28T19:56:25.714Z,3.90
2022-12-28T19:58:53.784Z,2.97
2022-12-28T20:01:25.977Z,3.90
2022-12-28T20:03:52.931Z,2.67
2022-12-28T20:06:27.040Z,4.03
2022-12-28T20:08:58.604Z,3.23
2022-12-28T20:11:26.270Z,5.07
2022-12-28T20:13:57.867Z,3.00
2022-12-28T20:16:26.242Z,4.70
2022-12-28T20:18:53.964Z,5.07
2022-12-28T20:21:22.242Z,4.70
2022-12-28T20:23:50.032Z,4.27
2022-12-28T20:26:18.216Z,4.37
2022-12-28T20:28:45.126Z,3.50
2022-12-28T20:31:14.221Z,4.13
2022-12-28T20:33:41.925Z,2.50
2022-12-28T20:36:12.077Z,3.63
2022-12-28T20:38:38.725Z,3.73
2022-12-28T20:41:05.259Z,3.50
2022-12-28T20:43:32.705Z,3.03
2022-12-28T20:45:59.569Z,2.90
2022-12-28T20:48:26.332Z,3.73
2022-12-28T20:50:57.590Z,3.53
2022-12-28T20:53:24.451Z,3.60
2022-12-28T20:55:52.165Z,3.37
2022-12-28T20:58:19.968Z,3.17
2022-12-28T21:00:46.672Z,3.17
2022-12-28T21:03:13.234Z,3.17
2022-12-28T21:05:40.066Z,3.07
2022-12-28T21:08:06.553Z,3.30
2022-12-28T21:10:33.029Z,4.00
2022-12-28T21:12:59.585Z,2.87
2022-12-28T21:15:27.164Z,2.67
2022-12-28T21:17:53.601Z,2.77
2022-12-28T21:20:20.151Z,2.97
2022-12-28T21:22:46.705Z,3.17
2022-12-28T21:25:13.186Z,2.90
2022-12-28T21:27:39.588Z,3.37
2022-12-28T21:30:07.009Z,2.63
2022-12-28T21:32:33.448Z,3.10
2022-12-28T21:34:59.938Z,3.53
2022-12-28T21:37:35.086Z,2.43
2022-12-28T21:40:04.227Z,2.43
2022-12-28T21:42:30.718Z,2.97
2022-12-28T21:44:57.326Z,3.80
2022-12-28T21:47:23.899Z,2.30
2022-12-28T21:49:50.431Z,3.30
2022-12-28T21:52:16.999Z,2.83
2022-12-28T21:54:43.488Z,2.13
2022-12-28T21:57:11.875Z,1.90
2022-12-28T21:59:38.853Z,2.30
2022-12-28T22:02:38.033Z,3.47
2022-12-28T22:05:23.460Z,2.60
2022-12-28T22:08:10.486Z,2.60
2022-12-28T22:10:56.565Z,1.90
2022-12-28T22:13:23.132Z,2.33
2022-12-28T22:15:52.172Z,2.63
2022-12-28T22:21:07.573Z,1.73
2022-12-28T22:23:35.097Z,2.20
2022-12-28T22:26:01.707Z,2.50
2022-12-28T22:28:28.139Z,3.00
2022-12-28T22:30:54.583Z,2.30
2022-12-28T22:33:21.018Z,2.97
2022-12-28T22:35:47.405Z,2.70
2022-12-28T22:38:13.945Z,2.83
2022-12-28T22:40:40.392Z,2.93
2022-12-28T22:43:06.820Z,2.33
2022-12-28T22:45:33.271Z,2.40
2022-12-28T22:47:59.863Z,3.07
2022-12-28T22:50:28.138Z,2.60
2022-12-28T22:52:55.924Z,3.10
2022-12-28T22:55:22.449Z,3.10
2022-12-28T22:57:48.924Z,3.30
2022-12-28T23:00:15.547Z,2.90
2022-12-28T23:02:43.067Z,2.67
2022-12-28T23:05:09.917Z,1.53
2022-12-28T23:07:38.538Z,3.10
2022-12-28T23:10:07.146Z,2.87
2022-12-28T23:12:33.818Z,2.10
2022-12-28T23:15:19.778Z,2.90
2022-12-28T23:17:49.606Z,2.90
2022-12-28T23:20:35.265Z,2.70
2022-12-28T23:23:20.721Z,2.30
2022-12-28T23:26:05.569Z,2.90
2022-12-28T23:28:33.675Z,2.30
2022-12-28T23:31:00.931Z,3.00
2022-12-28T23:33:27.472Z,2.67
2022-12-28T23:35:54.027Z,2.63
2022-12-28T23:38:20.440Z,2.63
2022-12-28T23:41:07.007Z,2.73
2022-12-28T23:43:33.410Z,2.80
2022-12-28T23:46:03.443Z,2.90
2022-12-28T23:48:29.901Z,2.30
2022-12-28T23:51:07.910Z,2.40
2022-12-28T23:53:34.978Z,1.93
2022-12-28T23:56:01.423Z,2.07
2022-12-28T23:58:27.996Z,1.90
